sensor_id;sensor_type;location;lat;lon;timestamp;temperature;humidity
19359;DHT22;9815;52.334;20.890;2023-04-03T00:01:12;2.00;99.90
19359;DHT22;9815;52.334;20.890;2023-04-03T00:03:40;2.00;99.50
19359;DHT22;9815;52.334;20.890;2023-04-03T00:06:09;1.90;99.90
19359;DHT22;9815;52.334;20.890;2023-04-03T00:08:38;1.90;99.90
19359;DHT22;9815;52.334;20.890;2023-04-03T00:11:08;1.90;97.70
19359;DHT22;9815;52.334;20.890;2023-04-03T00:13:37;1.90;94.00
19359;DHT22;9815;52.334;20.890;2023-04-03T00:16:06;1.90;96.00
19359;DHT22;9815;52.334;20.890;2023-04-03T00:18:36;1.80;98.00
19359;DHT22;9815;52.334;20.890;2023-04-03T00:21:04;1.80;97.30
19359;DHT22;9815;52.334;20.890;2023-04-03T00:23:32;1.80;94.90
19359;DHT22;9815;52.334;20.890;2023-04-03T00:26:01;1.80;97.40
19359;DHT22;9815;52.334;20.890;2023-04-03T00:28:30;1.70;95.80
19359;DHT22;9815;52.334;20.890;2023-04-03T00:30:58;1.70;96.20
19359;DHT22;9815;52.334;20.890;2023-04-03T00:33:27;1.60;98.10
19359;DHT22;9815;52.334;20.890;2023-04-03T00:35:55;1.60;97.60
19359;DHT22;9815;52.334;20.890;2023-04-03T00:38:23;1.60;96.60
19359;DHT22;9815;52.334;20.890;2023-04-03T00:40:51;1.60;96.90
19359;DHT22;9815;52.334;20.890;2023-04-03T00:43:22;1.50;99.30
19359;DHT22;9815;52.334;20.890;2023-04-03T00:45:53;1.40;98.80
19359;DHT22;9815;52.334;20.890;2023-04-03T00:48:24;1.40;97.40
19359;DHT22;9815;52.334;20.890;2023-04-03T00:50:52;1.50;97.20
19359;DHT22;9815;52.334;20.890;2023-04-03T00:53:24;1.40;96.30
19359;DHT22;9815;52.334;20.890;2023-04-03T00:55:54;1.40;96.60
19359;DHT22;9815;52.334;20.890;2023-04-03T00:58:28;1.40;97.40
19359;DHT22;9815;52.334;20.890;2023-04-03T01:01:05;1.40;96.50
19359;DHT22;9815;52.334;20.890;2023-04-03T01:03:34;1.30;99.40
19359;DHT22;9815;52.334;20.890;2023-04-03T01:06:04;1.30;99.50
19359;DHT22;9815;52.334;20.890;2023-04-03T01:08:33;1.20;99.00
19359;DHT22;9815;52.334;20.890;2023-04-03T01:11:01;1.20;99.20
19359;DHT22;9815;52.334;20.890;2023-04-03T01:13:32;1.20;96.00
19359;DHT22;9815;52.334;20.890;2023-04-03T01:16:03;1.20;97.20
19359;DHT22;9815;52.334;20.890;2023-04-03T01:18:32;1.20;98.00
19359;DHT22;9815;52.334;20.890;2023-04-03T01:24:15;1.10;96.20
19359;DHT22;9815;52.334;20.890;2023-04-03T01:26:46;1.10;97.50
19359;DHT22;9815;52.334;20.890;2023-04-03T01:29:14;1.10;96.00
19359;DHT22;9815;52.334;20.890;2023-04-03T01:31:47;1.10;97.80
19359;DHT22;9815;52.334;20.890;2023-04-03T01:34:16;1.00;97.60
19359;DHT22;9815;52.334;20.890;2023-04-03T01:36:44;1.00;97.60
19359;DHT22;9815;52.334;20.890;2023-04-03T01:39:13;1.00;99.90
19359;DHT22;9815;52.334;20.890;2023-04-03T01:41:41;1.00;99.30
19359;DHT22;9815;52.334;20.890;2023-04-03T01:44:15;1.00;98.30
19359;DHT22;9815;52.334;20.890;2023-04-03T01:46:45;0.90;99.20
19359;DHT22;9815;52.334;20.890;2023-04-03T01:49:14;0.90;99.20
19359;DHT22;9815;52.334;20.890;2023-04-03T01:51:42;0.90;98.50
19359;DHT22;9815;52.334;20.890;2023-04-03T01:54:10;0.90;99.90
19359;DHT22;9815;52.334;20.890;2023-04-03T01:56:38;0.80;99.10
19359;DHT22;9815;52.334;20.890;2023-04-03T01:59:07;0.70;99.90
19359;DHT22;9815;52.334;20.890;2023-04-03T02:01:35;0.70;99.90
19359;DHT22;9815;52.334;20.890;2023-04-03T02:04:05;0.70;99.90
19359;DHT22;9815;52.334;20.890;2023-04-03T02:06:33;0.70;99.90
19359;DHT22;9815;52.334;20.890;2023-04-03T02:09:01;0.70;99.90
19359;DHT22;9815;52.334;20.890;2023-04-03T02:11:30;0.60;99.90
19359;DHT22;9815;52.334;20.890;2023-04-03T02:13:58;0.60;99.90
19359;DHT22;9815;52.334;20.890;2023-04-03T02:16:26;0.60;99.90
19359;DHT22;9815;52.334;20.890;2023-04-03T02:18:55;0.60;99.90
19359;DHT22;9815;52.334;20.890;2023-04-03T02:21:25;0.60;99.90
19359;DHT22;9815;52.334;20.890;2023-04-03T02:23:53;0.60;99.90
19359;DHT22;9815;52.334;20.890;2023-04-03T02:26:21;0.50;99.90
19359;DHT22;9815;52.334;20.890;2023-04-03T02:28:49;0.50;99.90
19359;DHT22;9815;52.334;20.890;2023-04-03T02:31:17;0.50;99.90
19359;DHT22;9815;52.334;20.890;2023-04-03T02:33:46;0.40;99.90
19359;DHT22;9815;52.334;20.890;2023-04-03T02:36:16;0.40;99.90
19359;DHT22;9815;52.334;20.890;2023-04-03T02:38:51;0.40;99.90
19359;DHT22;9815;52.334;20.890;2023-04-03T02:41:19;0.40;99.90
19359;DHT22;9815;52.334;20.890;2023-04-03T02:43:48;0.40;99.90
19359;DHT22;9815;52.334;20.890;2023-04-03T02:46:16;0.30;99.90
19359;DHT22;9815;52.334;20.890;2023-04-03T02:48:44;0.30;99.90
19359;DHT22;9815;52.334;20.890;2023-04-03T02:51:12;0.20;99.90
19359;DHT22;9815;52.334;20.890;2023-04-03T02:53:40;0.20;99.90
19359;DHT22;9815;52.334;20.890;2023-04-03T02:56:14;0.20;99.90
19359;DHT22;9815;52.334;20.890;2023-04-03T02:58:44;0.10;99.90
19359;DHT22;9815;52.334;20.890;2023-04-03T03:01:12;0.10;99.90
19359;DHT22;9815;52.334;20.890;2023-04-03T03:03:41;0.10;99.90
19359;DHT22;9815;52.334;20.890;2023-04-03T03:06:10;0.10;99.90
19359;DHT22;9815;52.334;20.890;2023-04-03T03:08:39;0.10;99.90
19359;DHT22;9815;52.334;20.890;2023-04-03T03:11:08;0.00;99.90
19359;DHT22;9815;52.334;20.890;2023-04-03T03:13:38;0.00;99.90
19359;DHT22;9815;52.334;20.890;2023-04-03T03:16:06;-0.10;99.90
19359;DHT22;9815;52.334;20.890;2023-04-03T03:18:35;-0.10;99.90
19359;DHT22;9815;52.334;20.890;2023-04-03T03:21:04;-0.20;99.90
19359;DHT22;9815;52.334;20.890;2023-04-03T03:23:32;-0.20;99.90
19359;DHT22;9815;52.334;20.890;2023-04-03T03:26:03;-0.20;99.90
19359;DHT22;9815;52.334;20.890;2023-04-03T03:28:34;-0.20;99.90
19359;DHT22;9815;52.334;20.890;2023-04-03T03:31:05;-0.20;99.90
19359;DHT22;9815;52.334;20.890;2023-04-03T03:33:36;-0.20;99.90
19359;DHT22;9815;52.334;20.890;2023-04-03T03:36:04;-0.20;99.90
19359;DHT22;9815;52.334;20.890;2023-04-03T03:38:32;-0.20;99.90
19359;DHT22;9815;52.334;20.890;2023-04-03T03:41:01;-0.30;99.90
19359;DHT22;9815;52.334;20.890;2023-04-03T03:43:31;-0.30;99.90
19359;DHT22;9815;52.334;20.890;2023-04-03T03:46:00;-0.40;99.90
19359;DHT22;9815;52.334;20.890;2023-04-03T03:48:29;-0.30;99.90
19359;DHT22;9815;52.334;20.890;2023-04-03T03:50:57;-0.40;99.90
19359;DHT22;9815;52.334;20.890;2023-04-03T03:53:29;-0.40;99.90
19359;DHT22;9815;52.334;20.890;2023-04-03T03:56:04;-0.40;99.90
19359;DHT22;9815;52.334;20.890;2023-04-03T03:58:34;-0.40;99.90
19359;DHT22;9815;52.334;20.890;2023-04-03T04:01:03;-0.40;99.90
19359;DHT22;9815;52.334;20.890;2023-04-03T04:03:39;-0.40;99.90
19359;DHT22;9815;52.334;20.890;2023-04-03T04:06:10;-0.40;99.90
19359;DHT22;9815;52.334;20.890;2023-04-03T04:08:38;-0.40;99.90
19359;DHT22;9815;52.334;20.890;2023-04-03T04:11:09;-0.40;99.90
19359;DHT22;9815;52.334;20.890;2023-04-03T04:13:38;-0.40;99.90
19359;DHT22;9815;52.334;20.890;2023-04-03T04:16:07;-0.30;99.90
19359;DHT22;9815;52.334;20.890;2023-04-03T04:18:36;-0.40;99.90
19359;DHT22;9815;52.334;20.890;2023-04-03T04:21:06;-0.30;99.90
19359;DHT22;9815;52.334;20.890;2023-04-03T04:23:34;-0.30;99.90
19359;DHT22;9815;52.334;20.890;2023-04-03T04:26:03;-0.30;99.90
19359;DHT22;9815;52.334;20.890;2023-04-03T04:28:34;-0.20;99.90
19359;DHT22;9815;52.334;20.890;2023-04-03T04:31:04;-0.30;99.90
19359;DHT22;9815;52.334;20.890;2023-04-03T04:33:32;-0.30;99.90
19359;DHT22;9815;52.334;20.890;2023-04-03T04:36:03;-0.30;99.90
19359;DHT22;9815;52.334;20.890;2023-04-03T04:38:33;-0.20;99.90
19359;DHT22;9815;52.334;20.890;2023-04-03T04:41:01;-0.20;99.90
19359;DHT22;9815;52.334;20.890;2023-04-03T04:43:29;-0.30;99.90
19359;DHT22;9815;52.334;20.890;2023-04-03T04:46:02;-0.20;99.90
19359;DHT22;9815;52.334;20.890;2023-04-03T04:48:33;-0.20;99.90
19359;DHT22;9815;52.334;20.890;2023-04-03T04:51:02;-0.20;99.90
19359;DHT22;9815;52.334;20.890;2023-04-03T04:53:30;0.00;99.90
19359;DHT22;9815;52.334;20.890;2023-04-03T04:56:00;0.00;99.90
19359;DHT22;9815;52.334;20.890;2023-04-03T04:58:29;0.10;99.90
19359;DHT22;9815;52.334;20.890;2023-04-03T05:00:59;0.20;99.90
19359;DHT22;9815;52.334;20.890;2023-04-03T05:03:29;0.10;99.90
19359;DHT22;9815;52.334;20.890;2023-04-03T05:05:58;0.10;99.90
19359;DHT22;9815;52.334;20.890;2023-04-03T05:08:28;0.20;99.90
19359;DHT22;9815;52.334;20.890;2023-04-03T05:10:57;0.20;99.90
19359;DHT22;9815;52.334;20.890;2023-04-03T05:13:28;0.30;99.90
19359;DHT22;9815;52.334;20.890;2023-04-03T05:15:56;0.40;99.90
19359;DHT22;9815;52.334;20.890;2023-04-03T05:18:25;0.40;99.90
19359;DHT22;9815;52.334;20.890;2023-04-03T05:20:55;0.30;99.90
19359;DHT22;9815;52.334;20.890;2023-04-03T05:23:25;0.40;99.90
19359;DHT22;9815;52.334;20.890;2023-04-03T05:25:56;0.50;99.90
19359;DHT22;9815;52.334;20.890;2023-04-03T05:28:25;0.50;99.90
19359;DHT22;9815;52.334;20.890;2023-04-03T05:30:55;0.50;99.90
19359;DHT22;9815;52.334;20.890;2023-04-03T05:33:29;0.50;99.90
19359;DHT22;9815;52.334;20.890;2023-04-03T05:36:02;0.50;99.90
19359;DHT22;9815;52.334;20.890;2023-04-03T05:38:35;0.60;99.90
19359;DHT22;9815;52.334;20.890;2023-04-03T05:41:03;0.50;99.90
19359;DHT22;9815;52.334;20.890;2023-04-03T05:43:32;0.60;99.90
19359;DHT22;9815;52.334;20.890;2023-04-03T05:46:03;0.60;99.90
19359;DHT22;9815;52.334;20.890;2023-04-03T05:48:31;0.70;99.30
19359;DHT22;9815;52.334;20.890;2023-04-03T05:50:59;0.70;99.90
19359;DHT22;9815;52.334;20.890;2023-04-03T05:53:28;0.70;99.40
19359;DHT22;9815;52.334;20.890;2023-04-03T05:56:00;0.70;99.10
19359;DHT22;9815;52.334;20.890;2023-04-03T05:58:31;0.70;99.90
19359;DHT22;9815;52.334;20.890;2023-04-03T06:01:00;0.70;98.20
19359;DHT22;9815;52.334;20.890;2023-04-03T06:03:30;0.70;96.50
19359;DHT22;9815;52.334;20.890;2023-04-03T06:05:58;0.70;97.70
19359;DHT22;9815;52.334;20.890;2023-04-03T06:08:26;0.80;96.80
19359;DHT22;9815;52.334;20.890;2023-04-03T06:10:54;0.90;97.60
19359;DHT22;9815;52.334;20.890;2023-04-03T06:13:22;0.90;98.00
19359;DHT22;9815;52.334;20.890;2023-04-03T06:15:51;0.90;96.50
19359;DHT22;9815;52.334;20.890;2023-04-03T06:18:19;0.80;95.40
19359;DHT22;9815;52.334;20.890;2023-04-03T06:20:49;1.00;96.90
19359;DHT22;9815;52.334;20.890;2023-04-03T06:23:17;1.00;95.50
19359;DHT22;9815;52.334;20.890;2023-04-03T06:25:45;1.10;93.30
19359;DHT22;9815;52.334;20.890;2023-04-03T06:28:13;1.00;94.40
19359;DHT22;9815;52.334;20.890;2023-04-03T06:30:41;1.10;97.90
19359;DHT22;9815;52.334;20.890;2023-04-03T06:33:11;1.30;94.70
19359;DHT22;9815;52.334;20.890;2023-04-03T06:35:39;1.40;92.60
19359;DHT22;9815;52.334;20.890;2023-04-03T06:38:09;1.30;90.40
19359;DHT22;9815;52.334;20.890;2023-04-03T06:40:38;1.40;92.20
19359;DHT22;9815;52.334;20.890;2023-04-03T06:43:07;1.40;91.60
19359;DHT22;9815;52.334;20.890;2023-04-03T06:45:35;1.40;90.00
19359;DHT22;9815;52.334;20.890;2023-04-03T06:48:04;1.50;89.60
19359;DHT22;9815;52.334;20.890;2023-04-03T06:50:32;1.50;90.10
19359;DHT22;9815;52.334;20.890;2023-04-03T06:53:00;1.70;90.50
19359;DHT22;9815;52.334;20.890;2023-04-03T06:55:30;1.70;87.60
19359;DHT22;9815;52.334;20.890;2023-04-03T06:57:58;1.70;89.10
19359;DHT22;9815;52.334;20.890;2023-04-03T07:00:26;1.70;87.10
19359;DHT22;9815;52.334;20.890;2023-04-03T07:02:54;1.80;85.80
19359;DHT22;9815;52.334;20.890;2023-04-03T07:05:23;1.80;87.40
19359;DHT22;9815;52.334;20.890;2023-04-03T07:07:52;1.90;83.80
19359;DHT22;9815;52.334;20.890;2023-04-03T07:10:20;2.00;87.60
19359;DHT22;9815;52.334;20.890;2023-04-03T07:12:49;2.00;77.60
19359;DHT22;9815;52.334;20.890;2023-04-03T07:15:17;2.00;76.70
19359;DHT22;9815;52.334;20.890;2023-04-03T07:17:45;2.10;74.50
19359;DHT22;9815;52.334;20.890;2023-04-03T07:20:14;2.20;74.50
19359;DHT22;9815;52.334;20.890;2023-04-03T07:22:42;2.50;71.40
19359;DHT22;9815;52.334;20.890;2023-04-03T07:25:10;2.60;67.50
19359;DHT22;9815;52.334;20.890;2023-04-03T07:27:39;2.70;70.00
19359;DHT22;9815;52.334;20.890;2023-04-03T07:30:09;2.60;68.00
19359;DHT22;9815;52.334;20.890;2023-04-03T07:32:37;2.80;72.80
19359;DHT22;9815;52.334;20.890;2023-04-03T07:35:05;2.80;64.10
19359;DHT22;9815;52.334;20.890;2023-04-03T07:37:33;2.90;72.50
19359;DHT22;9815;52.334;20.890;2023-04-03T07:40:02;2.90;58.00
19359;DHT22;9815;52.334;20.890;2023-04-03T07:42:31;2.80;67.90
19359;DHT22;9815;52.334;20.890;2023-04-03T07:44:59;3.00;58.50
19359;DHT22;9815;52.334;20.890;2023-04-03T07:47:28;3.00;57.00
19359;DHT22;9815;52.334;20.890;2023-04-03T07:49:57;2.90;57.10
19359;DHT22;9815;52.334;20.890;2023-04-03T07:52:25;2.80;53.20
19359;DHT22;9815;52.334;20.890;2023-04-03T07:54:53;2.90;56.10
19359;DHT22;9815;52.334;20.890;2023-04-03T07:57:21;2.90;54.60
19359;DHT22;9815;52.334;20.890;2023-04-03T07:59:49;3.10;54.30
19359;DHT22;9815;52.334;20.890;2023-04-03T08:02:17;3.30;48.50
19359;DHT22;9815;52.334;20.890;2023-04-03T08:04:46;3.20;44.70
19359;DHT22;9815;52.334;20.890;2023-04-03T08:07:15;3.30;47.80
19359;DHT22;9815;52.334;20.890;2023-04-03T08:09:43;3.50;48.10
19359;DHT22;9815;52.334;20.890;2023-04-03T08:12:11;3.40;43.70
19359;DHT22;9815;52.334;20.890;2023-04-03T08:14:40;3.30;43.20
19359;DHT22;9815;52.334;20.890;2023-04-03T08:17:08;3.30;45.00
19359;DHT22;9815;52.334;20.890;2023-04-03T08:19:39;3.60;39.80
19359;DHT22;9815;52.334;20.890;2023-04-03T08:22:08;3.50;38.80
19359;DHT22;9815;52.334;20.890;2023-04-03T08:24:36;3.80;36.40
19359;DHT22;9815;52.334;20.890;2023-04-03T08:27:14;3.60;40.00
19359;DHT22;9815;52.334;20.890;2023-04-03T08:29:43;3.50;38.80
19359;DHT22;9815;52.334;20.890;2023-04-03T08:32:11;4.00;39.30
19359;DHT22;9815;52.334;20.890;2023-04-03T08:34:39;4.50;37.40
19359;DHT22;9815;52.334;20.890;2023-04-03T08:37:09;4.00;32.60
19359;DHT22;9815;52.334;20.890;2023-04-03T08:39:37;4.10;34.10
19359;DHT22;9815;52.334;20.890;2023-04-03T08:42:14;4.10;33.60
19359;DHT22;9815;52.334;20.890;2023-04-03T08:44:50;4.20;34.60
19359;DHT22;9815;52.334;20.890;2023-04-03T08:47:24;4.20;34.50
19359;DHT22;9815;52.334;20.890;2023-04-03T08:49:55;4.70;33.40
19359;DHT22;9815;52.334;20.890;2023-04-03T08:52:34;4.70;31.10
19359;DHT22;9815;52.334;20.890;2023-04-03T08:55:06;4.50;31.60
19359;DHT22;9815;52.334;20.890;2023-04-03T08:57:38;4.70;31.50
19359;DHT22;9815;52.334;20.890;2023-04-03T09:00:16;4.80;31.30
19359;DHT22;9815;52.334;20.890;2023-04-03T09:02:46;5.00;29.60
19359;DHT22;9815;52.334;20.890;2023-04-03T09:05:16;5.40;29.00
19359;DHT22;9815;52.334;20.890;2023-04-03T09:07:49;5.40;28.80
19359;DHT22;9815;52.334;20.890;2023-04-03T09:10:24;5.70;28.90
19359;DHT22;9815;52.334;20.890;2023-04-03T09:13:00;6.00;27.10
19359;DHT22;9815;52.334;20.890;2023-04-03T09:15:29;6.10;26.20
19359;DHT22;9815;52.334;20.890;2023-04-03T09:18:10;5.90;25.60
19359;DHT22;9815;52.334;20.890;2023-04-03T09:20:45;5.60;26.10
19359;DHT22;9815;52.334;20.890;2023-04-03T09:23:20;5.50;26.60
19359;DHT22;9815;52.334;20.890;2023-04-03T09:25:53;5.30;26.40
19359;DHT22;9815;52.334;20.890;2023-04-03T09:28:22;4.70;26.80
19359;DHT22;9815;52.334;20.890;2023-04-03T09:30:50;4.70;28.00
19359;DHT22;9815;52.334;20.890;2023-04-03T09:33:18;4.70;28.00
19359;DHT22;9815;52.334;20.890;2023-04-03T09:35:50;5.00;28.10
19359;DHT22;9815;52.334;20.890;2023-04-03T09:38:21;5.40;26.50
19359;DHT22;9815;52.334;20.890;2023-04-03T09:40:51;5.20;26.60
19359;DHT22;9815;52.334;20.890;2023-04-03T09:43:31;5.30;25.50
19359;DHT22;9815;52.334;20.890;2023-04-03T09:49:02;4.50;27.50
19359;DHT22;9815;52.334;20.890;2023-04-03T09:51:35;4.70;28.40
19359;DHT22;9815;52.334;20.890;2023-04-03T09:54:35;4.90;28.10
19359;DHT22;9815;52.334;20.890;2023-04-03T09:57:09;5.50;27.00
19359;DHT22;9815;52.334;20.890;2023-04-03T09:59:46;5.50;26.00
19359;DHT22;9815;52.334;20.890;2023-04-03T10:02:24;5.60;26.90
19359;DHT22;9815;52.334;20.890;2023-04-03T10:04:56;5.50;26.00
19359;DHT22;9815;52.334;20.890;2023-04-03T10:07:37;5.60;25.20
19359;DHT22;9815;52.334;20.890;2023-04-03T10:10:21;5.20;25.50
19359;DHT22;9815;52.334;20.890;2023-04-03T10:13:04;4.80;27.00
19359;DHT22;9815;52.334;20.890;2023-04-03T10:15:36;4.50;26.60
19359;DHT22;9815;52.334;20.890;2023-04-03T10:18:18;4.60;27.40
19359;DHT22;9815;52.334;20.890;2023-04-03T10:20:51;5.40;26.70
19359;DHT22;9815;52.334;20.890;2023-04-03T10:23:24;5.80;25.20
19359;DHT22;9815;52.334;20.890;2023-04-03T10:26:05;5.70;25.00
19359;DHT22;9815;52.334;20.890;2023-04-03T10:28:45;5.60;25.30
19359;DHT22;9815;52.334;20.890;2023-04-03T10:31:17;5.20;26.20
19359;DHT22;9815;52.334;20.890;2023-04-03T10:33:56;5.10;26.00
19359;DHT22;9815;52.334;20.890;2023-04-03T10:36:35;5.80;25.60
19359;DHT22;9815;52.334;20.890;2023-04-03T10:39:14;6.20;22.50
19359;DHT22;9815;52.334;20.890;2023-04-03T10:41:55;6.60;22.50
19359;DHT22;9815;52.334;20.890;2023-04-03T10:44:52;7.00;22.90
19359;DHT22;9815;52.334;20.890;2023-04-03T10:47:28;7.20;21.50
19359;DHT22;9815;52.334;20.890;2023-04-03T10:50:24;6.80;22.80
19359;DHT22;9815;52.334;20.890;2023-04-03T10:52:57;6.40;24.00
19359;DHT22;9815;52.334;20.890;2023-04-03T10:55:35;5.70;23.40
19359;DHT22;9815;52.334;20.890;2023-04-03T10:58:06;6.00;25.10
19359;DHT22;9815;52.334;20.890;2023-04-03T11:00:43;6.20;23.50
19359;DHT22;9815;52.334;20.890;2023-04-03T11:03:15;5.80;22.60
19359;DHT22;9815;52.334;20.890;2023-04-03T11:05:48;6.10;23.20
19359;DHT22;9815;52.334;20.890;2023-04-03T11:08:26;6.90;21.70
19359;DHT22;9815;52.334;20.890;2023-04-03T11:10:57;7.20;21.20
19359;DHT22;9815;52.334;20.890;2023-04-03T11:13:33;7.10;20.90
19359;DHT22;9815;52.334;20.890;2023-04-03T11:16:04;7.40;21.30
19359;DHT22;9815;52.334;20.890;2023-04-03T11:18:37;7.90;21.50
19359;DHT22;9815;52.334;20.890;2023-04-03T11:21:11;8.50;19.70
19359;DHT22;9815;52.334;20.890;2023-04-03T11:23:42;7.50;19.50
19359;DHT22;9815;52.334;20.890;2023-04-03T11:26:19;6.60;21.50
19359;DHT22;9815;52.334;20.890;2023-04-03T11:28:53;6.00;22.60
19359;DHT22;9815;52.334;20.890;2023-04-03T11:31:35;6.30;23.80
19359;DHT22;9815;52.334;20.890;2023-04-03T11:34:18;7.00;22.60
19359;DHT22;9815;52.334;20.890;2023-04-03T11:36:50;6.90;22.50
19359;DHT22;9815;52.334;20.890;2023-04-03T11:39:23;6.70;23.40
19359;DHT22;9815;52.334;20.890;2023-04-03T11:41:52;6.70;22.10
19359;DHT22;9815;52.334;20.890;2023-04-03T11:44:38;6.50;23.30
19359;DHT22;9815;52.334;20.890;2023-04-03T11:47:07;6.60;23.90
19359;DHT22;9815;52.334;20.890;2023-04-03T11:49:52;6.60;23.10
19359;DHT22;9815;52.334;20.890;2023-04-03T11:52:55;6.10;22.80
19359;DHT22;9815;52.334;20.890;2023-04-03T11:55:43;5.60;22.40
19359;DHT22;9815;52.334;20.890;2023-04-03T11:58:14;6.30;22.40
19359;DHT22;9815;52.334;20.890;2023-04-03T12:00:56;7.20;22.40
19359;DHT22;9815;52.334;20.890;2023-04-03T12:03:32;7.60;21.10
19359;DHT22;9815;52.334;20.890;2023-04-03T12:09:29;7.30;21.20
19359;DHT22;9815;52.334;20.890;2023-04-03T12:11:59;6.90;20.90
19359;DHT22;9815;52.334;20.890;2023-04-03T12:14:28;7.00;21.00
19359;DHT22;9815;52.334;20.890;2023-04-03T12:16:58;7.70;21.10
19359;DHT22;9815;52.334;20.890;2023-04-03T12:19:35;8.50;21.10
19359;DHT22;9815;52.334;20.890;2023-04-03T12:22:15;8.20;19.20
19359;DHT22;9815;52.334;20.890;2023-04-03T12:24:47;6.90;20.40
19359;DHT22;9815;52.334;20.890;2023-04-03T12:27:33;7.30;21.30
19359;DHT22;9815;52.334;20.890;2023-04-03T12:30:21;7.40;20.00
19359;DHT22;9815;52.334;20.890;2023-04-03T12:33:13;7.60;19.30
19359;DHT22;9815;52.334;20.890;2023-04-03T12:35:55;8.10;20.10
19359;DHT22;9815;52.334;20.890;2023-04-03T12:38:55;7.80;20.00
19359;DHT22;9815;52.334;20.890;2023-04-03T12:41:33;7.50;19.00
19359;DHT22;9815;52.334;20.890;2023-04-03T12:44:18;8.20;19.70
19359;DHT22;9815;52.334;20.890;2023-04-03T12:46:51;8.30;18.00
19359;DHT22;9815;52.334;20.890;2023-04-03T12:49:35;7.70;19.00
19359;DHT22;9815;52.334;20.890;2023-04-03T12:52:06;6.80;19.60
19359;DHT22;9815;52.334;20.890;2023-04-03T12:54:45;6.70;20.10
19359;DHT22;9815;52.334;20.890;2023-04-03T12:57:19;7.20;19.90
19359;DHT22;9815;52.334;20.890;2023-04-03T12:59:47;6.60;19.00
19359;DHT22;9815;52.334;20.890;2023-04-03T13:02:21;6.30;20.10
19359;DHT22;9815;52.334;20.890;2023-04-03T13:04:54;6.40;22.00
19359;DHT22;9815;52.334;20.890;2023-04-03T13:07:27;6.40;21.80
19359;DHT22;9815;52.334;20.890;2023-04-03T13:10:15;6.60;21.40
19359;DHT22;9815;52.334;20.890;2023-04-03T13:12:49;6.40;21.90
19359;DHT22;9815;52.334;20.890;2023-04-03T13:15:20;6.10;22.20
19359;DHT22;9815;52.334;20.890;2023-04-03T13:17:51;6.00;21.60
19359;DHT22;9815;52.334;20.890;2023-04-03T13:20:24;6.00;21.70
19359;DHT22;9815;52.334;20.890;2023-04-03T13:22:57;6.40;21.40
19359;DHT22;9815;52.334;20.890;2023-04-03T13:25:27;7.00;21.60
19359;DHT22;9815;52.334;20.890;2023-04-03T13:27:58;7.20;20.00
19359;DHT22;9815;52.334;20.890;2023-04-03T13:30:40;7.00;20.50
19359;DHT22;9815;52.334;20.890;2023-04-03T13:33:21;7.00;20.70
19359;DHT22;9815;52.334;20.890;2023-04-03T13:35:57;6.70;21.10
19359;DHT22;9815;52.334;20.890;2023-04-03T13:38:27;6.50;21.40
19359;DHT22;9815;52.334;20.890;2023-04-03T13:40:59;6.60;20.80
19359;DHT22;9815;52.334;20.890;2023-04-03T13:43:31;6.70;20.30
19359;DHT22;9815;52.334;20.890;2023-04-03T13:46:04;6.50;20.70
19359;DHT22;9815;52.334;20.890;2023-04-03T13:48:39;6.50;22.10
19359;DHT22;9815;52.334;20.890;2023-04-03T13:51:19;6.40;20.60
19359;DHT22;9815;52.334;20.890;2023-04-03T13:53:51;6.30;22.10
19359;DHT22;9815;52.334;20.890;2023-04-03T13:56:26;6.20;20.70
19359;DHT22;9815;52.334;20.890;2023-04-03T13:58:59;6.20;22.40
19359;DHT22;9815;52.334;20.890;2023-04-03T14:01:37;6.40;22.10
19359;DHT22;9815;52.334;20.890;2023-04-03T14:04:16;6.70;21.30
19359;DHT22;9815;52.334;20.890;2023-04-03T14:06:46;6.60;21.10
19359;DHT22;9815;52.334;20.890;2023-04-03T14:09:15;6.40;21.40
19359;DHT22;9815;52.334;20.890;2023-04-03T14:11:43;6.20;21.90
19359;DHT22;9815;52.334;20.890;2023-04-03T14:14:15;6.00;22.10
19359;DHT22;9815;52.334;20.890;2023-04-03T14:16:46;5.90;23.20
19359;DHT22;9815;52.334;20.890;2023-04-03T14:19:19;5.90;23.90
19359;DHT22;9815;52.334;20.890;2023-04-03T14:21:51;5.90;24.20
19359;DHT22;9815;52.334;20.890;2023-04-03T14:24:20;5.90;24.10
19359;DHT22;9815;52.334;20.890;2023-04-03T14:26:50;5.90;24.60
19359;DHT22;9815;52.334;20.890;2023-04-03T14:29:19;5.90;23.90
19359;DHT22;9815;52.334;20.890;2023-04-03T14:31:49;5.90;23.20
19359;DHT22;9815;52.334;20.890;2023-04-03T14:34:33;5.70;22.70
19359;DHT22;9815;52.334;20.890;2023-04-03T14:37:04;5.80;22.80
19359;DHT22;9815;52.334;20.890;2023-04-03T14:39:32;5.90;23.10
19359;DHT22;9815;52.334;20.890;2023-04-03T14:42:00;6.00;22.40
19359;DHT22;9815;52.334;20.890;2023-04-03T14:44:28;6.00;22.90
19359;DHT22;9815;52.334;20.890;2023-04-03T14:46:57;6.00;22.50
19359;DHT22;9815;52.334;20.890;2023-04-03T14:49:27;5.90;23.40
19359;DHT22;9815;52.334;20.890;2023-04-03T14:51:56;5.90;22.90
19359;DHT22;9815;52.334;20.890;2023-04-03T14:54:26;5.80;22.90
19359;DHT22;9815;52.334;20.890;2023-04-03T14:56:57;5.90;23.10
19359;DHT22;9815;52.334;20.890;2023-04-03T14:59:27;5.90;22.50
19359;DHT22;9815;52.334;20.890;2023-04-03T15:01:55;6.10;22.20
19359;DHT22;9815;52.334;20.890;2023-04-03T15:04:24;5.90;22.20
19359;DHT22;9815;52.334;20.890;2023-04-03T15:06:53;5.80;22.90
19359;DHT22;9815;52.334;20.890;2023-04-03T15:09:23;5.70;23.50
19359;DHT22;9815;52.334;20.890;2023-04-03T15:11:54;5.60;23.60
19359;DHT22;9815;52.334;20.890;2023-04-03T15:14:22;5.70;24.50
19359;DHT22;9815;52.334;20.890;2023-04-03T15:17:03;5.60;24.50
19359;DHT22;9815;52.334;20.890;2023-04-03T15:19:37;5.60;24.50
19359;DHT22;9815;52.334;20.890;2023-04-03T15:22:05;5.60;24.50
19359;DHT22;9815;52.334;20.890;2023-04-03T15:24:33;5.60;24.60
19359;DHT22;9815;52.334;20.890;2023-04-03T15:27:03;5.50;24.20
19359;DHT22;9815;52.334;20.890;2023-04-03T15:29:31;5.50;24.50
19359;DHT22;9815;52.334;20.890;2023-04-03T15:31:59;5.50;24.70
19359;DHT22;9815;52.334;20.890;2023-04-03T15:34:28;5.50;24.70
19359;DHT22;9815;52.334;20.890;2023-04-03T15:36:56;5.50;24.40
19359;DHT22;9815;52.334;20.890;2023-04-03T15:39:25;5.40;24.40
19359;DHT22;9815;52.334;20.890;2023-04-03T15:41:53;5.40;24.40
19359;DHT22;9815;52.334;20.890;2023-04-03T15:44:23;5.40;24.90
19359;DHT22;9815;52.334;20.890;2023-04-03T15:46:51;5.30;24.90
19359;DHT22;9815;52.334;20.890;2023-04-03T15:49:19;5.30;25.00
19359;DHT22;9815;52.334;20.890;2023-04-03T15:51:48;5.30;24.40
19359;DHT22;9815;52.334;20.890;2023-04-03T15:54:16;5.30;24.50
19359;DHT22;9815;52.334;20.890;2023-04-03T15:56:44;5.30;24.90
19359;DHT22;9815;52.334;20.890;2023-04-03T15:59:12;5.30;24.10
19359;DHT22;9815;52.334;20.890;2023-04-03T16:01:42;5.20;24.20
19359;DHT22;9815;52.334;20.890;2023-04-03T16:04:11;5.10;25.00
19359;DHT22;9815;52.334;20.890;2023-04-03T16:06:41;5.10;24.90
19359;DHT22;9815;52.334;20.890;2023-04-03T16:09:10;5.10;25.10
19359;DHT22;9815;52.334;20.890;2023-04-03T16:11:38;5.20;25.40
19359;DHT22;9815;52.334;20.890;2023-04-03T16:14:07;5.00;25.50
19359;DHT22;9815;52.334;20.890;2023-04-03T16:16:35;5.00;25.70
19359;DHT22;9815;52.334;20.890;2023-04-03T16:19:05;5.10;26.20
19359;DHT22;9815;52.334;20.890;2023-04-03T16:21:34;5.00;27.00